Time;durP1;ratioP1;P1;durP2;ratioP2;P2;SDS_P1;SDS_P2;PMS_P1;PMS_P2;Temp;Humidity;BMP_temperature;BMP_pressure;BME280_temperature;BME280_humidity;BME280_pressure;Samples;Min_cycle;Max_cycle;Signal;HPM_P1;HPM_P2
2022/10/15 00:02:07;;;;;;;14.57;11.88;;;13.40;99.90;;;;;;5013753;28;20033;-78
2022/10/15 00:04:33;;;;;;;13.25;11.70;;;13.40;99.90;;;;;;5004909;28;20030;-76
2022/10/15 00:06:59;;;;;;;16.27;11.65;;;13.40;99.90;;;;;;5009426;28;20515;-76
2022/10/15 00:09:25;;;;;;;16.83;13.23;;;13.40;99.90;;;;;;5005054;28;20026;-76
2022/10/15 00:11:51;;;;;;;16.83;12.65;;;13.50;99.90;;;;;;5007326;28;20395;-76
2022/10/15 00:14:16;;;;;;;18.35;13.00;;;13.50;99.90;;;;;;5000979;28;20521;-75
2022/10/15 00:16:42;;;;;;;19.88;13.23;;;13.50;99.90;;;;;;5011894;28;20479;-76
2022/10/15 00:19:08;;;;;;;15.52;12.65;;;13.50;99.90;;;;;;5000356;28;20037;-76
2022/10/15 00:21:34;;;;;;;20.35;14.63;;;13.50;99.90;;;;;;5000083;28;20029;-76
2022/10/15 00:23:59;;;;;;;18.38;13.40;;;13.50;99.90;;;;;;5005364;28;20018;-76
2022/10/15 00:26:27;;;;;;;20.10;14.30;;;13.50;99.90;;;;;;5007046;28;20030;-76
2022/10/15 00:28:56;;;;;;;23.42;15.05;;;13.50;99.90;;;;;;5001593;28;20394;-76
2022/10/15 00:31:25;;;;;;;18.65;15.02;;;13.50;99.90;;;;;;4998850;28;20030;-76
2022/10/15 00:33:51;;;;;;;21.50;16.17;;;13.50;99.90;;;;;;5004256;28;20495;-76
2022/10/15 00:36:20;;;;;;;19.08;15.98;;;13.50;99.90;;;;;;5005548;28;20036;-73
2022/10/15 00:38:46;;;;;;;21.50;15.93;;;13.50;99.90;;;;;;4993070;28;20057;-75
2022/10/15 00:41:15;;;;;;;21.55;16.55;;;13.50;99.90;;;;;;5006284;28;20038;-75
2022/10/15 00:43:50;;;;;;;21.30;16.92;;;13.50;99.90;;;;;;5002703;28;20022;-75
2022/10/15 00:46:30;;;;;;;25.70;17.65;;;13.50;99.90;;;;;;4994375;28;20029;-75
2022/10/15 00:49:16;;;;;;;23.88;16.90;;;13.50;99.90;;;;;;5005981;28;20391;-75
2022/10/15 00:51:46;;;;;;;20.63;15.98;;;13.50;99.90;;;;;;4993208;28;20034;-76
2022/10/15 00:54:13;;;;;;;26.55;18.98;;;13.50;99.90;;;;;;4993081;28;20038;-75
2022/10/15 00:56:42;;;;;;;23.73;17.70;;;13.50;99.90;;;;;;4991768;28;20026;-76
2022/10/15 00:59:08;;;;;;;23.48;17.13;;;13.50;99.90;;;;;;4996158;28;20022;-74
2022/10/15 01:01:34;;;;;;;20.02;16.33;;;13.50;99.90;;;;;;5003195;28;20030;-75
2022/10/15 01:04:01;;;;;;;23.85;17.77;;;13.50;99.90;;;;;;5006147;28;20041;-75
2022/10/15 01:06:27;;;;;;;20.65;17.33;;;13.50;99.90;;;;;;5002540;28;20400;-75
2022/10/15 01:08:53;;;;;;;22.63;17.77;;;13.50;99.90;;;;;;4997263;28;20542;-75
2022/10/15 01:11:36;;;;;;;22.77;17.63;;;13.50;99.90;;;;;;5002879;28;20496;-75
2022/10/15 01:14:28;;;;;;;22.63;17.83;;;13.40;99.90;;;;;;5006175;28;20026;-75
2022/10/15 01:17:03;;;;;;;19.27;17.02;;;13.50;99.90;;;;;;5005658;28;20018;-74
2022/10/15 01:20:11;;;;;;;19.80;16.17;;;13.50;99.90;;;;;;4992846;28;20026;-75
2022/10/15 01:23:26;;;;;;;19.52;16.77;;;13.50;99.90;;;;;;5000397;28;20030;-75
2022/10/15 01:26:29;;;;;;;22.67;18.20;;;13.50;99.90;;;;;;5012305;28;20029;-74
2022/10/15 01:29:32;;;;;;;23.98;16.75;;;13.40;99.90;;;;;;5010633;28;20038;-74
2022/10/15 01:32:35;;;;;;;23.27;17.95;;;13.50;99.90;;;;;;5012119;28;20136;-74
2022/10/15 01:35:07;;;;;;;25.90;18.35;;;13.40;99.90;;;;;;4992692;28;20108;-73
2022/10/15 01:37:38;;;;;;;24.35;19.55;;;13.50;99.90;;;;;;4992159;28;20037;-73
2022/10/15 01:40:34;;;;;;;24.42;19.20;;;13.40;99.90;;;;;;4998888;28;20030;-74
2022/10/15 01:43:05;;;;;;;24.08;18.83;;;13.50;99.90;;;;;;5008472;28;20033;-76
2022/10/15 01:45:36;;;;;;;28.92;19.65;;;13.50;99.90;;;;;;5010711;28;20026;-75
2022/10/15 01:48:05;;;;;;;24.95;17.95;;;13.50;99.90;;;;;;5010453;28;20030;-75
2022/10/15 01:50:33;;;;;;;23.65;18.50;;;13.50;99.90;;;;;;5012062;28;20018;-75
2022/10/15 01:53:01;;;;;;;26.50;19.67;;;13.50;99.90;;;;;;5012007;28;20443;-75
2022/10/15 01:55:28;;;;;;;26.52;18.42;;;13.50;99.90;;;;;;5012018;28;20029;-75
2022/10/15 01:57:56;;;;;;;21.65;17.58;;;13.50;99.90;;;;;;4998623;28;20030;-73
2022/10/15 02:00:22;;;;;;;27.05;18.55;;;13.50;99.90;;;;;;4998760;28;20057;-74
2022/10/15 02:02:48;;;;;;;26.05;18.10;;;13.50;99.90;;;;;;5005353;28;20058;-74
2022/10/15 02:05:23;;;;;;;22.40;17.05;;;13.50;99.90;;;;;;4992343;28;20029;-74
2022/10/15 02:08:00;;;;;;;25.17;18.52;;;13.50;99.90;;;;;;5005304;28;20077;-74
2022/10/15 02:10:45;;;;;;;21.48;18.80;;;13.50;99.90;;;;;;5004040;28;20026;-75
2022/10/15 02:13:20;;;;;;;27.20;18.85;;;13.50;99.90;;;;;;4999993;28;20045;-74
2022/10/15 02:16:20;;;;;;;23.27;17.65;;;13.50;99.90;;;;;;5010461;28;20142;-74
2022/10/15 02:19:04;;;;;;;20.90;17.30;;;13.50;99.90;;;;;;4998351;28;20056;-74
2022/10/15 02:21:52;;;;;;;22.42;18.55;;;13.50;99.90;;;;;;5004852;28;20049;-73
2022/10/15 02:24:22;;;;;;;24.02;16.23;;;13.50;99.90;;;;;;4998162;28;20038;-74
2022/10/15 02:26:54;;;;;;;25.13;18.55;;;13.50;99.90;;;;;;4994561;28;20022;-73
2022/10/15 02:29:25;;;;;;;26.05;18.42;;;13.50;99.90;;;;;;5008021;28;20030;-73
2022/10/15 02:31:52;;;;;;;23.52;16.75;;;13.50;99.90;;;;;;5008929;28;20105;-74
2022/10/15 02:34:21;;;;;;;24.95;18.30;;;13.50;99.90;;;;;;5004285;28;20028;-74
2022/10/15 02:36:48;;;;;;;24.08;18.10;;;13.50;99.90;;;;;;5015314;28;20036;-74
2022/10/15 02:39:20;;;;;;;25.70;18.25;;;13.40;99.90;;;;;;5006435;28;20125;-73
2022/10/15 02:41:47;;;;;;;26.90;18.90;;;13.40;99.90;;;;;;5008637;28;20822;-74
2022/10/15 02:44:12;;;;;;;26.52;18.55;;;13.50;99.90;;;;;;4995698;28;20081;-74
2022/10/15 02:46:38;;;;;;;25.17;18.17;;;13.50;99.90;;;;;;4997245;28;20030;-73
2022/10/15 02:49:03;;;;;;;24.83;17.25;;;13.50;99.90;;;;;;5005566;28;20440;-74
2022/10/15 02:51:34;;;;;;;26.10;18.40;;;13.50;99.90;;;;;;5008613;28;20034;-75
2022/10/15 02:54:01;;;;;;;26.38;18.70;;;13.40;99.90;;;;;;5004231;28;20037;-76
2022/10/15 02:56:27;;;;;;;26.52;18.65;;;13.40;99.90;;;;;;4998327;28;20026;-75
2022/10/15 02:58:53;;;;;;;23.48;17.67;;;13.50;99.90;;;;;;4993788;28;20037;-75
2022/10/15 03:01:18;;;;;;;25.50;17.85;;;13.40;99.90;;;;;;4998956;28;20030;-74
2022/10/15 03:03:44;;;;;;;23.63;16.33;;;13.40;99.90;;;;;;5014820;28;20033;-73
2022/10/15 03:06:09;;;;;;;21.15;15.32;;;13.50;99.90;;;;;;5014462;28;20018;-73
2022/10/15 03:08:35;;;;;;;19.98;15.40;;;13.50;99.90;;;;;;5004238;28;20480;-74
2022/10/15 03:11:01;;;;;;;19.63;15.25;;;13.40;99.90;;;;;;4995150;28;20603;-73
2022/10/15 03:13:28;;;;;;;19.45;14.10;;;13.50;99.90;;;;;;4993735;28;20026;-74
2022/10/15 03:15:53;;;;;;;18.30;14.57;;;13.50;99.90;;;;;;4997099;28;20022;-75
2022/10/15 03:18:19;;;;;;;20.33;15.48;;;13.50;99.90;;;;;;5004492;28;20503;-75
2022/10/15 03:20:54;;;;;;;20.48;14.18;;;13.50;99.90;;;;;;5011202;28;20045;-74
2022/10/15 03:23:20;;;;;;;16.13;13.10;;;13.40;99.90;;;;;;5014411;28;20033;-74
2022/10/15 03:25:46;;;;;;;19.50;14.55;;;13.50;99.90;;;;;;5014368;28;20391;-74
2022/10/15 03:28:11;;;;;;;16.33;13.30;;;13.50;99.90;;;;;;5012853;28;20387;-75
2022/10/15 03:30:37;;;;;;;17.30;12.65;;;13.50;99.90;;;;;;5009208;28;20120;-74
2022/10/15 03:33:02;;;;;;;19.85;13.77;;;13.50;99.90;;;;;;4993960;28;20535;-74
2022/10/15 03:35:28;;;;;;;18.02;13.35;;;13.50;99.90;;;;;;4993474;28;20377;-76
2022/10/15 03:37:53;;;;;;;15.52;11.80;;;13.50;99.90;;;;;;5003337;28;20037;-76
2022/10/15 03:40:19;;;;;;;16.25;11.63;;;13.50;99.90;;;;;;5000914;28;20053;-76
2022/10/15 03:42:50;;;;;;;14.38;11.70;;;13.50;99.90;;;;;;5004235;28;20062;-76
2022/10/15 03:45:16;;;;;;;16.90;12.38;;;13.50;99.90;;;;;;4994630;28;20030;-76
2022/10/15 03:47:41;;;;;;;19.15;13.27;;;13.50;99.90;;;;;;5004670;28;20018;-76
2022/10/15 03:50:08;;;;;;;14.63;11.18;;;13.50;99.90;;;;;;5000782;28;20022;-75
2022/10/15 03:52:35;;;;;;;18.02;11.38;;;13.50;99.90;;;;;;5013870;28;20030;-75
2022/10/15 03:55:00;;;;;;;16.02;12.23;;;13.50;99.90;;;;;;4995377;28;20496;-73
2022/10/15 03:57:26;;;;;;;19.80;13.90;;;13.50;99.90;;;;;;4994069;28;20065;-75
2022/10/15 03:59:51;;;;;;;20.15;12.27;;;13.50;99.90;;;;;;4999304;28;20102;-75
2022/10/15 04:02:17;;;;;;;14.68;10.98;;;13.50;99.90;;;;;;5013865;28;20487;-75
2022/10/15 04:04:42;;;;;;;17.48;10.77;;;13.50;99.90;;;;;;5007527;28;20652;-75
2022/10/15 04:07:08;;;;;;;12.93;9.45;;;13.50;99.90;;;;;;5004049;28;20480;-75
2022/10/15 04:09:33;;;;;;;15.82;11.20;;;13.50;99.90;;;;;;5008824;28;20476;-75
2022/10/15 04:11:59;;;;;;;14.70;10.20;;;13.50;99.90;;;;;;5004027;28;20495;-75
2022/10/15 04:14:24;;;;;;;14.85;10.63;;;13.50;99.90;;;;;;4995956;28;20613;-74
2022/10/15 04:16:50;;;;;;;14.05;11.02;;;13.50;99.90;;;;;;4993773;28;20514;-74
2022/10/15 04:19:16;;;;;;;12.95;9.65;;;13.50;99.90;;;;;;4998007;28;20495;-74
2022/10/15 04:21:42;;;;;;;11.57;9.45;;;13.50;99.90;;;;;;5012095;28;20029;-75
2022/10/15 04:24:08;;;;;;;11.88;9.55;;;13.50;99.90;;;;;;4996053;28;20030;-75
2022/10/15 04:26:33;;;;;;;11.85;9.57;;;13.50;99.90;;;;;;4993843;28;20088;-76
2022/10/15 04:28:59;;;;;;;14.43;10.65;;;13.50;99.90;;;;;;4997357;28;20101;-76
2022/10/15 04:31:25;;;;;;;11.93;9.02;;;13.50;99.90;;;;;;5002318;28;20101;-76
2022/10/15 04:33:50;;;;;;;9.73;8.10;;;13.50;99.90;;;;;;5007218;28;20027;-77
2022/10/15 04:36:16;;;;;;;13.82;10.35;;;13.50;99.90;;;;;;5002673;28;20476;-76
2022/10/15 04:38:41;;;;;;;20.90;13.10;;;13.50;99.90;;;;;;4999555;28;20117;-76
2022/10/15 04:41:10;;;;;;;15.20;9.93;;;13.50;99.90;;;;;;5009467;28;20100;-76
2022/10/15 04:43:37;;;;;;;12.48;9.82;;;13.50;99.90;;;;;;5009053;28;20015;-76
2022/10/15 04:46:04;;;;;;;13.18;9.73;;;13.50;99.90;;;;;;5003470;28;20507;-76
2022/10/15 04:48:32;;;;;;;12.63;9.52;;;13.50;99.90;;;;;;4999783;28;20602;-76
2022/10/15 04:51:07;;;;;;;11.18;9.88;;;13.50;99.90;;;;;;5002632;28;20041;-76
2022/10/15 04:53:33;;;;;;;12.70;10.25;;;13.50;99.90;;;;;;5005198;28;20077;-76
2022/10/15 04:56:03;;;;;;;14.65;10.60;;;13.50;99.90;;;;;;5004964;28;20030;-76
2022/10/15 04:58:33;;;;;;;14.00;10.77;;;13.50;99.90;;;;;;4999317;28;20046;-76
2022/10/15 05:01:05;;;;;;;11.88;9.80;;;13.50;99.90;;;;;;5010435;28;20443;-76
2022/10/15 05:03:32;;;;;;;14.77;10.65;;;13.50;99.90;;;;;;5001618;28;20052;-76
2022/10/15 05:06:06;;;;;;;10.27;8.23;;;13.50;99.90;;;;;;5010448;28;20026;-75
2022/10/15 05:08:33;;;;;;;13.10;9.30;;;13.50;99.90;;;;;;5000802;28;20068;-76
2022/10/15 05:11:03;;;;;;;10.45;8.32;;;13.50;99.90;;;;;;5008532;28;20497;-76
2022/10/15 05:13:30;;;;;;;12.98;9.25;;;13.50;99.90;;;;;;4992911;28;20534;-76
2022/10/15 05:15:55;;;;;;;13.48;9.20;;;13.50;99.90;;;;;;4995002;28;20033;-76
2022/10/15 05:18:21;;;;;;;11.40;7.90;;;13.60;99.90;;;;;;5011005;28;20022;-76
2022/10/15 05:20:47;;;;;;;10.63;8.80;;;13.50;99.90;;;;;;4997885;28;20060;-76
2022/10/15 05:23:13;;;;;;;11.43;9.55;;;13.50;99.90;;;;;;5011075;28;20026;-76
2022/10/15 05:25:38;;;;;;;13.00;9.02;;;13.50;99.90;;;;;;4994865;28;20034;-76
2022/10/15 05:28:04;;;;;;;14.68;8.38;;;13.50;99.90;;;;;;5001849;28;20184;-76
2022/10/15 05:30:29;;;;;;;16.08;11.27;;;13.60;99.90;;;;;;5009303;28;20531;-75
2022/10/15 05:32:55;;;;;;;27.50;20.85;;;13.60;99.90;;;;;;4992609;28;20038;-74
2022/10/15 05:35:21;;;;;;;15.95;10.18;;;13.50;99.90;;;;;;4992594;28;20023;-75
2022/10/15 05:37:50;;;;;;;13.13;9.50;;;13.60;99.90;;;;;;4991384;28;20028;-75
2022/10/15 05:40:15;;;;;;;10.32;8.27;;;13.50;99.90;;;;;;5004486;28;20512;-76
2022/10/15 05:42:41;;;;;;;9.68;7.90;;;13.60;99.90;;;;;;5002278;28;20037;-75
2022/10/15 05:45:07;;;;;;;11.73;8.48;;;13.50;99.90;;;;;;4997921;28;20464;-76
2022/10/15 05:47:32;;;;;;;15.35;9.93;;;13.50;99.90;;;;;;5001922;28;20034;-76
2022/10/15 05:49:58;;;;;;;11.05;9.00;;;13.60;99.90;;;;;;5005707;28;20435;-76
2022/10/15 05:52:23;;;;;;;11.18;8.23;;;13.50;99.90;;;;;;5002094;28;20538;-76
2022/10/15 05:54:49;;;;;;;14.63;8.52;;;13.50;99.90;;;;;;4998576;28;20105;-76
2022/10/15 05:57:14;;;;;;;11.55;7.88;;;13.50;99.90;;;;;;5000895;28;20026;-76
2022/10/15 05:59:40;;;;;;;12.93;10.25;;;13.50;99.90;;;;;;5007113;28;20026;-75
2022/10/15 06:02:05;;;;;;;14.57;12.00;;;13.50;99.90;;;;;;5011875;28;20377;-76
2022/10/15 06:04:31;;;;;;;15.05;11.52;;;13.60;99.90;;;;;;4997469;28;20511;-76
2022/10/15 06:06:57;;;;;;;15.85;12.55;;;13.60;99.90;;;;;;5000340;28;20076;-75
2022/10/15 06:09:23;;;;;;;23.17;15.75;;;13.70;99.90;;;;;;5005451;28;20058;-76
2022/10/15 06:11:49;;;;;;;14.65;11.27;;;13.60;99.90;;;;;;4992217;28;20037;-76
2022/10/15 06:14:14;;;;;;;13.73;10.57;;;13.70;99.90;;;;;;5005428;28;20033;-75
2022/10/15 06:16:40;;;;;;;13.60;12.05;;;13.60;99.90;;;;;;4992154;28;20027;-75
2022/10/15 06:19:05;;;;;;;28.08;22.52;;;13.70;99.90;;;;;;4991868;28;20026;-74
2022/10/15 06:21:31;;;;;;;53.55;36.88;;;13.70;99.90;;;;;;4991939;28;20477;-75
2022/10/15 06:23:56;;;;;;;129.75;78.43;;;13.60;99.90;;;;;;4992122;28;20022;-76
2022/10/15 06:26:22;;;;;;;225.90;111.95;;;13.60;99.90;;;;;;4992106;28;20022;-76
2022/10/15 06:28:48;;;;;;;231.75;109.03;;;13.60;99.90;;;;;;4992762;28;20030;-75
2022/10/15 06:31:13;;;;;;;169.10;80.38;;;13.70;99.90;;;;;;5002790;28;20043;-76
2022/10/15 06:33:39;;;;;;;128.27;64.03;;;13.70;99.90;;;;;;5003811;28;20018;-77
2022/10/15 06:36:07;;;;;;;115.97;57.13;;;13.70;99.90;;;;;;5000440;28;20092;-76
2022/10/15 06:38:33;;;;;;;43.75;24.23;;;13.70;99.90;;;;;;4996723;28;20081;-76
2022/10/15 06:40:59;;;;;;;368.35;179.77;;;13.70;99.90;;;;;;5002733;28;20022;-76
2022/10/15 06:43:24;;;;;;;113.38;64.55;;;13.70;99.90;;;;;;4991892;28;20049;-76
2022/10/15 06:45:50;;;;;;;35.60;22.30;;;13.70;99.90;;;;;;4991944;28;20018;-75
2022/10/15 06:48:16;;;;;;;20.42;12.02;;;13.80;99.90;;;;;;4993875;28;20026;-75
2022/10/15 06:50:42;;;;;;;17.45;12.02;;;13.90;99.90;;;;;;5010100;28;20056;-74
2022/10/15 06:53:08;;;;;;;12.85;10.77;;;13.90;99.90;;;;;;4995891;28;20069;-74
2022/10/15 06:55:34;;;;;;;17.25;12.82;;;13.90;99.90;;;;;;4991788;28;20033;-74
2022/10/15 06:57:59;;;;;;;13.13;11.13;;;13.90;99.90;;;;;;4992677;28;20034;-74
2022/10/15 07:00:26;;;;;;;14.88;12.23;;;13.90;99.90;;;;;;5009649;28;20033;-74
2022/10/15 07:02:51;;;;;;;16.80;14.98;;;13.90;99.90;;;;;;5009719;28;20026;-76
2022/10/15 07:05:18;;;;;;;12.20;10.90;;;14.00;99.90;;;;;;5001638;28;20037;-76
2022/10/15 07:07:54;;;;;;;18.10;14.48;;;14.00;99.90;;;;;;5008826;28;20034;-75
2022/10/15 07:10:20;;;;;;;20.52;17.08;;;14.00;99.90;;;;;;5010303;28;20037;-73
2022/10/15 07:12:46;;;;;;;14.88;12.15;;;14.00;99.90;;;;;;5013412;28;20103;-76
2022/10/15 07:15:12;;;;;;;14.85;12.63;;;14.00;99.90;;;;;;5014190;28;20040;-75
2022/10/15 07:17:38;;;;;;;17.38;13.13;;;14.10;99.90;;;;;;5003320;28;20468;-76
2022/10/15 07:20:05;;;;;;;10.30;8.57;;;14.10;99.90;;;;;;4995080;28;20038;-76
2022/10/15 07:22:30;;;;;;;9.55;8.50;;;14.10;99.90;;;;;;5012018;28;20444;-75
2022/10/15 07:24:56;;;;;;;11.75;8.50;;;14.20;99.90;;;;;;5001637;28;20054;-76
2022/10/15 07:27:21;;;;;;;10.45;7.05;;;14.20;99.90;;;;;;5006327;28;20110;-75
2022/10/15 07:29:47;;;;;;;12.23;9.18;;;14.20;99.90;;;;;;5004062;28;20072;-76
2022/10/15 07:32:13;;;;;;;11.73;7.15;;;14.30;99.90;;;;;;5000130;28;20076;-75
2022/10/15 07:34:38;;;;;;;16.88;12.57;;;14.30;99.90;;;;;;5002840;28;20026;-76
2022/10/15 07:37:04;;;;;;;12.32;9.88;;;14.40;99.90;;;;;;5007618;28;20034;-75
2022/10/15 07:39:29;;;;;;;8.52;7.63;;;14.50;99.90;;;;;;5003498;28;20061;-76
2022/10/15 07:41:55;;;;;;;7.68;6.07;;;14.50;99.90;;;;;;4999709;28;20113;-76
2022/10/15 07:44:21;;;;;;;6.30;5.70;;;14.50;99.90;;;;;;5004422;28;20038;-76
2022/10/15 07:46:47;;;;;;;7.55;6.65;;;14.50;99.90;;;;;;5006556;28;20022;-76
2022/10/15 07:49:15;;;;;;;6.55;5.22;;;14.50;99.90;;;;;;4994427;28;20648;-76
2022/10/15 07:51:40;;;;;;;8.85;6.40;;;14.50;99.90;;;;;;4994494;28;20034;-76
2022/10/15 07:54:06;;;;;;;6.78;5.43;;;14.50;99.90;;;;;;5002979;28;20033;-76
2022/10/15 07:56:31;;;;;;;5.82;5.20;;;14.50;99.90;;;;;;5000803;28;20026;-76
2022/10/15 07:58:57;;;;;;;5.97;5.32;;;14.50;99.90;;;;;;5013727;28;20030;-76
2022/10/15 08:01:22;;;;;;;6.00;5.40;;;14.50;99.90;;;;;;5009447;28;20046;-76
2022/10/15 08:03:48;;;;;;;8.05;5.88;;;14.50;99.90;;;;;;5004979;28;20498;-76
2022/10/15 08:06:14;;;;;;;7.43;5.65;;;14.50;99.90;;;;;;5000519;28;20391;-76
2022/10/15 08:08:39;;;;;;;6.72;6.10;;;14.40;99.90;;;;;;5013465;28;20026;-76
2022/10/15 08:11:11;;;;;;;7.30;5.82;;;14.40;99.90;;;;;;5000410;28;20054;-76
2022/10/15 08:13:41;;;;;;;9.57;6.72;;;14.40;99.90;;;;;;5002738;28;20030;-76
2022/10/15 08:16:08;;;;;;;7.82;5.95;;;14.40;99.90;;;;;;4993982;28;20026;-76
2022/10/15 08:18:35;;;;;;;9.35;6.50;;;14.40;99.90;;;;;;5005085;28;20022;-76
2022/10/15 08:21:00;;;;;;;8.65;6.45;;;14.40;99.90;;;;;;4993829;28;20053;-76
2022/10/15 08:23:26;;;;;;;6.55;5.13;;;14.50;99.90;;;;;;5005298;28;20483;-77
2022/10/15 08:25:52;;;;;;;7.68;6.20;;;14.40;99.90;;;;;;5000052;28;20029;-76
2022/10/15 08:28:18;;;;;;;8.02;5.60;;;14.50;99.90;;;;;;5001738;28;20030;-76
2022/10/15 08:30:43;;;;;;;7.43;5.75;;;14.50;99.90;;;;;;5005508;28;20027;-77
2022/10/15 08:33:09;;;;;;;9.75;6.82;;;14.50;99.90;;;;;;5004603;28;20108;-76
2022/10/15 08:35:37;;;;;;;7.20;6.50;;;14.60;99.90;;;;;;4999842;28;20060;-77
2022/10/15 08:38:04;;;;;;;7.75;6.95;;;14.60;99.90;;;;;;5001084;28;20484;-76
2022/10/15 08:40:29;;;;;;;8.63;7.72;;;14.60;99.90;;;;;;5006519;28;20041;-75
2022/10/15 08:42:56;;;;;;;10.13;7.55;;;14.80;99.90;;;;;;5005149;28;20030;-75
2022/10/15 08:45:34;;;;;;;8.85;7.40;;;14.90;99.90;;;;;;4999776;28;20022;-75
2022/10/15 08:48:09;;;;;;;10.90;8.45;;;14.70;99.90;;;;;;4998775;28;20068;-75
2022/10/15 08:51:02;;;;;;;11.63;7.75;;;14.80;99.90;;;;;;5003081;28;20388;-75
2022/10/15 08:53:29;;;;;;;7.50;6.80;;;14.90;99.90;;;;;;5007170;28;20041;-75
2022/10/15 08:56:01;;;;;;;9.50;7.10;;;14.90;99.90;;;;;;5005612;28;20484;-74
2022/10/15 08:58:53;;;;;;;8.60;6.20;;;14.90;99.90;;;;;;4992930;28;20031;-75
2022/10/15 09:01:26;;;;;;;7.45;5.72;;;14.90;99.90;;;;;;4983582;28;20392;-74
2022/10/15 09:04:02;;;;;;;7.07;6.38;;;14.90;99.90;;;;;;4997939;28;20041;-75
2022/10/15 09:06:31;;;;;;;7.63;6.00;;;15.00;99.90;;;;;;4996484;28;20084;-74
2022/10/15 09:09:15;;;;;;;9.32;6.25;;;15.00;99.90;;;;;;4992719;28;20033;-74
2022/10/15 09:12:22;;;;;;;9.55;6.57;;;15.10;99.90;;;;;;5001431;28;20053;-74
2022/10/15 09:14:48;;;;;;;6.53;5.93;;;15.10;99.90;;;;;;5000331;28;20052;-75
2022/10/15 09:17:24;;;;;;;6.32;5.72;;;15.20;99.90;;;;;;4998127;28;20041;-75
2022/10/15 09:19:53;;;;;;;8.10;6.68;;;15.20;99.90;;;;;;4991520;28;20033;-76
2022/10/15 09:22:25;;;;;;;6.88;6.18;;;15.30;99.90;;;;;;4994125;28;20561;-76
2022/10/15 09:24:51;;;;;;;6.00;5.25;;;15.30;99.90;;;;;;5002180;28;20084;-76
2022/10/15 09:27:23;;;;;;;6.28;5.45;;;15.20;99.90;;;;;;4992460;28;20456;-76
2022/10/15 09:30:27;;;;;;;5.75;5.15;;;15.50;99.90;;;;;;4992027;28;20037;-76
2022/10/15 09:32:57;;;;;;;5.10;4.60;;;15.50;99.90;;;;;;4986516;28;20041;-77
2022/10/15 09:35:31;;;;;;;4.80;4.40;;;15.50;99.90;;;;;;4997885;28;20453;-76
2022/10/15 09:37:57;;;;;;;4.90;4.18;;;15.60;99.90;;;;;;5000996;28;20030;-75
2022/10/15 09:40:47;;;;;;;3.75;3.42;;;15.60;99.90;;;;;;5005679;28;20022;-75
2022/10/15 09:43:14;;;;;;;3.80;3.35;;;15.70;99.90;;;;;;5004176;28;20025;-75
2022/10/15 09:45:40;;;;;;;3.72;3.42;;;15.60;99.90;;;;;;5000374;28;20379;-76
2022/10/15 09:48:16;;;;;;;3.10;2.90;;;15.60;99.90;;;;;;4998696;28;20033;-76
2022/10/15 09:50:53;;;;;;;5.30;3.10;;;15.60;99.90;;;;;;5002532;28;20076;-75
2022/10/15 09:54:00;;;;;;;4.35;2.78;;;15.80;99.90;;;;;;4996762;28;20044;-77
2022/10/15 09:56:34;;;;;;;3.47;2.85;;;15.50;99.90;;;;;;4999970;28;20030;-75
2022/10/15 09:58:59;;;;;;;2.47;2.10;;;15.50;99.90;;;;;;5003016;28;20038;-75
2022/10/15 10:01:28;;;;;;;2.33;2.10;;;15.60;99.90;;;;;;5013163;28;20030;-75
2022/10/15 10:04:16;;;;;;;3.90;1.98;;;15.80;99.90;;;;;;5009405;28;20026;-75
2022/10/15 10:06:44;;;;;;;3.45;2.08;;;15.80;99.90;;;;;;4999910;28;20427;-76
2022/10/15 10:09:16;;;;;;;3.05;1.70;;;16.00;99.90;;;;;;4998489;28;20030;-76
2022/10/15 10:11:54;;;;;;;1.60;1.50;;;16.10;99.90;;;;;;5003202;28;20396;-76
2022/10/15 10:14:30;;;;;;;1.67;1.58;;;16.20;99.90;;;;;;5005413;28;20042;-76
2022/10/15 10:17:11;;;;;;;1.30;1.20;;;16.30;99.90;;;;;;5002264;28;20088;-77
2022/10/15 10:19:37;;;;;;;1.83;1.17;;;16.30;99.90;;;;;;4998965;28;20026;-77
2022/10/15 10:22:17;;;;;;;2.40;1.50;;;16.10;99.90;;;;;;5011069;28;20511;-76
2022/10/15 10:24:47;;;;;;;1.33;0.90;;;16.10;99.90;;;;;;5001446;28;20380;-76
2022/10/15 10:27:29;;;;;;;2.25;1.00;;;16.10;99.90;;;;;;4998229;28;20424;-76
2022/10/15 10:29:59;;;;;;;1.10;1.00;;;16.20;99.90;;;;;;5000377;28;20085;-76
2022/10/15 10:32:32;;;;;;;1.67;1.00;;;16.20;99.90;;;;;;5005337;28;20030;-76
2022/10/15 10:34:59;;;;;;;2.40;1.30;;;16.30;99.90;;;;;;5005077;28;20068;-75
2022/10/15 10:37:26;;;;;;;0.98;0.88;;;16.40;99.90;;;;;;4997336;28;20108;-75
2022/10/15 10:39:57;;;;;;;2.30;0.90;;;16.40;99.90;;;;;;4997051;28;20134;-76
2022/10/15 10:42:29;;;;;;;1.45;1.00;;;16.50;99.90;;;;;;5013902;28;20030;-76
2022/10/15 10:44:55;;;;;;;0.82;0.77;;;16.60;99.90;;;;;;5002128;28;20496;-76
2022/10/15 10:47:34;;;;;;;1.15;1.00;;;16.60;99.90;;;;;;5006761;28;20026;-76
2022/10/15 10:50:00;;;;;;;2.08;0.90;;;16.50;99.90;;;;;;5008697;28;20030;-77
2022/10/15 10:52:34;;;;;;;1.90;0.88;;;16.70;99.90;;;;;;5004488;28;20029;-76
2022/10/15 10:55:04;;;;;;;1.17;0.90;;;16.30;99.90;;;;;;5002133;28;20034;-75
2022/10/15 10:57:34;;;;;;;0.90;0.90;;;16.30;99.90;;;;;;5001714;28;20022;-75
2022/10/15 11:00:03;;;;;;;1.50;0.90;;;16.30;99.90;;;;;;5014611;28;20460;-77
2022/10/15 11:02:29;;;;;;;1.23;1.10;;;16.40;99.90;;;;;;5001925;28;20114;-76
2022/10/15 11:04:55;;;;;;;1.20;1.10;;;16.40;99.90;;;;;;5000649;28;20026;-76
2022/10/15 11:07:33;;;;;;;1.73;1.10;;;16.50;99.90;;;;;;5014653;28;20021;-73
2022/10/15 11:10:13;;;;;;;1.10;0.98;;;16.70;99.90;;;;;;5001988;28;20041;-76
2022/10/15 11:13:21;;;;;;;1.00;1.00;;;16.40;99.90;;;;;;5011136;28;20515;-76
2022/10/15 11:16:02;;;;;;;1.88;1.13;;;16.40;99.90;;;;;;5006865;28;20451;-76
2022/10/15 11:18:41;;;;;;;1.10;1.00;;;16.50;99.90;;;;;;5005171;28;20387;-76
2022/10/15 11:21:12;;;;;;;1.00;1.00;;;16.60;99.90;;;;;;5001993;28;20057;-77
2022/10/15 11:23:41;;;;;;;1.13;1.08;;;16.70;99.90;;;;;;5001157;28;20057;-76
2022/10/15 11:26:18;;;;;;;1.73;1.02;;;16.70;99.90;;;;;;5007056;28;20448;-77
2022/10/15 11:28:43;;;;;;;0.80;0.80;;;16.80;99.90;;;;;;5008327;28;20077;-77
2022/10/15 11:31:18;;;;;;;2.75;0.90;;;17.00;99.90;;;;;;5010653;28;20027;-77
2022/10/15 11:33:51;;;;;;;1.88;0.95;;;17.20;99.90;;;;;;5006524;28;20026;-76
2022/10/15 11:36:35;;;;;;;1.80;1.08;;;17.10;99.90;;;;;;5006746;28;20496;-76
2022/10/15 11:39:35;;;;;;;0.80;0.80;;;17.10;99.90;;;;;;5013096;28;20042;-75
2022/10/15 11:42:22;;;;;;;2.33;0.80;;;17.10;99.90;;;;;;4973110;28;20117;-74
2022/10/15 11:44:53;;;;;;;;;;;16.90;99.90;;;;;;4998322;28;20554;-75
2022/10/15 11:47:23;;;;;;;1.40;0.98;;;17.10;99.90;;;;;;5003239;28;20000;-75
2022/10/15 11:50:16;;;;;;;2.05;1.10;;;17.10;99.90;;;;;;4994894;28;20029;-74
2022/10/15 11:52:44;;;;;;;0.95;0.82;;;17.20;99.90;;;;;;5000285;28;20022;-74
2022/10/15 11:55:22;;;;;;;1.60;0.90;;;17.00;99.90;;;;;;5013811;28;20084;-74
2022/10/15 11:57:51;;;;;;;2.22;1.00;;;16.90;99.90;;;;;;4996688;28;20030;-75
2022/10/15 12:00:37;;;;;;;2.30;1.00;;;16.90;99.90;;;;;;5002427;28;20034;-75
2022/10/15 12:03:14;;;;;;;2.58;1.75;;;17.10;99.90;;;;;;5012400;28;20642;-75
2022/10/15 12:05:50;;;;;;;1.17;1.08;;;17.20;99.90;;;;;;5001288;28;20065;-75
2022/10/15 12:08:16;;;;;;;1.80;1.20;;;17.00;99.90;;;;;;5000792;28;20018;-75
2022/10/15 12:10:48;;;;;;;1.20;1.10;;;17.20;99.90;;;;;;4999963;28;20455;-75
2022/10/15 12:13:23;;;;;;;3.95;1.75;;;17.20;99.90;;;;;;4993971;28;20030;-75
2022/10/15 12:16:09;;;;;;;2.55;1.92;;;17.20;99.90;;;;;;4993933;28;20197;-75
2022/10/15 12:19:14;;;;;;;3.80;1.90;;;17.20;99.90;;;;;;4992221;28;20034;-75
2022/10/15 12:21:43;;;;;;;2.25;1.52;;;17.10;99.90;;;;;;5003683;28;20136;-75
2022/10/15 12:24:37;;;;;;;2.08;1.90;;;17.20;99.90;;;;;;5011953;28;20022;-74
2022/10/15 12:27:17;;;;;;;1.90;1.63;;;17.30;99.90;;;;;;4996483;28;20486;-75
2022/10/15 12:29:44;;;;;;;2.90;1.70;;;17.30;99.90;;;;;;5004351;28;20053;-75
2022/10/15 12:32:27;;;;;;;3.80;1.92;;;17.30;99.90;;;;;;5000133;28;20037;-75
2022/10/15 12:34:59;;;;;;;1.60;1.50;;;17.40;99.90;;;;;;5000000;28;20026;-75
2022/10/15 12:37:34;;;;;;;2.03;1.83;;;17.50;99.90;;;;;;5002233;28;20049;-75
2022/10/15 12:40:23;;;;;;;2.20;2.00;;;17.90;99.90;;;;;;5004692;28;20419;-75
2022/10/15 12:43:01;;;;;;;2.83;2.10;;;18.30;99.90;;;;;;4993363;28;20109;-75
2022/10/15 12:45:31;;;;;;;1.50;1.40;;;18.10;99.90;;;;;;4999945;28;20076;-75
2022/10/15 12:48:03;;;;;;;2.50;1.25;;;18.30;99.90;;;;;;5012610;28;20120;-75
2022/10/15 12:50:30;;;;;;;2.13;0.85;;;18.50;99.90;;;;;;5005241;28;20031;-76
2022/10/15 12:53:00;;;;;;;3.00;0.90;;;18.30;99.90;;;;;;5006343;28;20065;-76
2022/10/15 12:55:29;;;;;;;1.65;0.80;;;18.30;99.90;;;;;;5000704;28;20047;-76